createdAt,value
2023-05-10T00:02:19.444Z,25.50
2023-05-10T00:04:48.460Z,25.50
2023-05-10T00:07:19.532Z,25.50
2023-05-10T00:09:48.494Z,25.60
2023-05-10T00:12:17.468Z,25.60
2023-05-10T00:14:46.535Z,25.60
2023-05-10T00:17:15.655Z,25.70
2023-05-10T00:19:44.823Z,25.70
2023-05-10T00:22:13.928Z,25.80
2023-05-10T00:24:43.165Z,25.80
2023-05-10T00:27:12.169Z,25.90
2023-05-10T00:29:41.168Z,25.90
2023-05-10T00:32:10.226Z,26.00
2023-05-10T00:34:42.252Z,26.00
2023-05-10T00:37:11.974Z,26.00
2023-05-10T00:39:40.943Z,26.10
2023-05-10T00:42:12.706Z,26.10
2023-05-10T00:44:44.697Z,26.20
2023-05-10T00:47:14.096Z,26.20
2023-05-10T00:49:43.984Z,26.30
2023-05-10T00:52:25.797Z,26.30
2023-05-10T00:54:58.199Z,26.40
2023-05-10T00:57:27.805Z,26.50
2023-05-10T00:59:56.877Z,26.60
2023-05-10T01:02:26.765Z,26.60
2023-05-10T01:04:56.461Z,26.70
2023-05-10T01:07:25.585Z,26.70
2023-05-10T01:09:54.674Z,26.80
2023-05-10T01:12:23.824Z,26.90
2023-05-10T01:14:52.811Z,26.90
2023-05-10T01:17:22.315Z,27.00
2023-05-10T01:19:51.931Z,26.90
2023-05-10T01:22:38.945Z,27.00
2023-05-10T01:25:38.625Z,27.10
2023-05-10T01:28:07.600Z,27.10
2023-05-10T01:31:11.781Z,27.20
2023-05-10T01:34:19.800Z,27.30
2023-05-10T01:37:05.318Z,27.40
2023-05-10T01:39:40.222Z,27.50
2023-05-10T01:42:25.803Z,27.60
2023-05-10T01:45:16.145Z,27.70
2023-05-10T01:47:54.701Z,27.80
2023-05-10T01:50:31.123Z,28.00
2023-05-10T01:53:02.142Z,28.10
2023-05-10T01:55:34.652Z,28.20
2023-05-10T01:58:12.375Z,28.30
2023-05-10T02:00:45.716Z,28.40
2023-05-10T02:03:16.685Z,28.50
2023-05-10T02:05:48.625Z,28.60
2023-05-10T02:08:20.411Z,28.70
2023-05-10T02:10:51.104Z,28.80
2023-05-10T02:13:22.082Z,28.90
2023-05-10T02:15:53.182Z,28.90
2023-05-10T02:18:24.440Z,29.00
2023-05-10T02:20:55.124Z,29.00
2023-05-10T02:23:26.016Z,29.10
2023-05-10T02:25:57.787Z,29.20
2023-05-10T02:28:28.581Z,29.30
2023-05-10T02:30:58.559Z,29.30
2023-05-10T02:33:28.995Z,29.40
2023-05-10T02:35:58.714Z,29.40
2023-05-10T02:38:29.712Z,29.40
2023-05-10T02:40:59.785Z,29.40
2023-05-10T02:43:31.483Z,29.50
2023-05-10T02:46:00.733Z,29.60
2023-05-10T02:48:30.199Z,29.70
2023-05-10T02:51:07.249Z,29.80
2023-05-10T02:53:40.472Z,30.00
2023-05-10T02:56:35.250Z,30.10
2023-05-10T02:59:04.593Z,30.30
2023-05-10T03:01:33.617Z,30.40
2023-05-10T03:04:03.128Z,30.60
2023-05-10T03:06:32.125Z,30.80
2023-05-10T03:09:01.298Z,31.00
2023-05-10T03:11:57.639Z,31.10
2023-05-10T03:15:03.682Z,31.30
2023-05-10T03:17:59.691Z,31.50
2023-05-10T03:20:59.137Z,31.70
2023-05-10T03:23:52.869Z,31.80
2023-05-10T03:26:29.198Z,32.00
2023-05-10T03:29:01.208Z,32.10
2023-05-10T03:31:30.555Z,32.20
2023-05-10T03:34:03.459Z,32.30
2023-05-10T03:36:32.518Z,32.50
2023-05-10T03:39:01.893Z,32.60
2023-05-10T03:41:31.589Z,32.60
2023-05-10T03:44:00.584Z,32.60
2023-05-10T03:46:29.603Z,32.70
2023-05-10T03:48:58.724Z,32.80
2023-05-10T03:51:30.352Z,32.80
2023-05-10T03:53:59.457Z,32.90
2023-05-10T03:56:28.419Z,33.00
2023-05-10T03:58:57.317Z,33.10
2023-05-10T04:01:26.382Z,33.20
2023-05-10T04:03:55.503Z,33.30
2023-05-10T04:06:24.634Z,33.40
2023-05-10T04:08:53.723Z,33.50
2023-05-10T04:11:24.158Z,33.50
2023-05-10T04:13:53.292Z,33.60
2023-05-10T04:16:22.649Z,33.70
2023-05-10T04:18:51.720Z,33.90
2023-05-10T04:21:20.757Z,34.00
2023-05-10T04:23:53.435Z,34.00
2023-05-10T04:26:22.790Z,34.00
2023-05-10T04:28:51.764Z,34.00
2023-05-10T04:31:23.959Z,34.00
2023-05-10T04:33:53.100Z,34.00
2023-05-10T04:36:22.155Z,34.10
2023-05-10T04:38:51.175Z,34.10
2023-05-10T04:41:20.220Z,34.20
2023-05-10T04:43:51.319Z,34.20
2023-05-10T04:46:20.371Z,34.20
2023-05-10T04:48:51.759Z,34.20
2023-05-10T04:51:20.797Z,34.10
2023-05-10T04:54:01.604Z,34.00
2023-05-10T04:56:34.032Z,34.00
2023-05-10T04:59:03.069Z,34.00
2023-05-10T05:01:32.304Z,34.10
2023-05-10T05:04:01.571Z,34.10
2023-05-10T05:06:30.740Z,34.20
2023-05-10T05:08:59.702Z,34.20
2023-05-10T05:11:29.776Z,34.20
2023-05-10T05:14:01.083Z,34.20
2023-05-10T05:16:32.785Z,34.20
2023-05-10T05:19:03.412Z,34.20
2023-05-10T05:21:34.320Z,34.20
2023-05-10T05:24:04.064Z,34.10
2023-05-10T05:26:33.139Z,34.10
2023-05-10T05:29:02.127Z,34.10
2023-05-10T05:31:31.864Z,34.10
2023-05-10T05:34:01.004Z,34.10
2023-05-10T05:36:30.019Z,34.10
2023-05-10T05:38:59.333Z,34.10
2023-05-10T05:41:28.724Z,34.10
2023-05-10T05:43:57.670Z,34.00
2023-05-10T05:46:26.652Z,34.00
2023-05-10T05:48:55.591Z,34.00
2023-05-10T05:51:24.626Z,34.00
2023-05-10T05:53:53.680Z,34.00
2023-05-10T05:56:26.401Z,34.00
2023-05-10T05:58:55.502Z,34.00
2023-05-10T06:01:24.516Z,34.00
2023-05-10T06:03:53.679Z,34.00
2023-05-10T06:06:22.834Z,34.10
2023-05-10T06:08:52.389Z,34.20
2023-05-10T06:11:23.062Z,34.20
2023-05-10T06:13:52.562Z,34.20
2023-05-10T06:16:27.243Z,34.30
2023-05-10T06:19:02.484Z,34.30
2023-05-10T06:21:35.748Z,34.40
2023-05-10T06:24:05.111Z,34.50
2023-05-10T06:26:34.223Z,34.40
2023-05-10T06:29:03.493Z,34.50
2023-05-10T06:31:32.747Z,34.50
2023-05-10T06:34:01.763Z,34.50
2023-05-10T06:36:30.784Z,34.60
2023-05-10T06:38:59.822Z,34.60
2023-05-10T06:41:28.794Z,34.80
2023-05-10T06:44:00.420Z,35.10
2023-05-10T06:46:29.519Z,35.30
2023-05-10T06:48:58.529Z,35.30
2023-05-10T06:51:28.261Z,35.30
2023-05-10T06:53:57.307Z,35.10
2023-05-10T06:56:26.310Z,35.20
2023-05-10T06:58:55.341Z,35.20
2023-05-10T07:01:24.634Z,35.30
2023-05-10T07:03:54.291Z,35.30
2023-05-10T07:06:32.972Z,35.40
2023-05-10T07:09:03.230Z,35.40
2023-05-10T07:11:32.253Z,35.50
2023-05-10T07:14:01.803Z,35.50
2023-05-10T07:16:31.189Z,35.50
2023-05-10T07:19:00.220Z,35.40
2023-05-10T07:21:30.764Z,35.40
2023-05-10T07:23:59.956Z,35.50
2023-05-10T07:26:29.058Z,35.60
2023-05-10T07:28:58.027Z,35.70
2023-05-10T07:31:27.101Z,35.70
2023-05-10T07:33:56.211Z,35.80
2023-05-10T07:36:25.144Z,35.90
2023-05-10T07:38:54.824Z,35.90
2023-05-10T07:41:24.665Z,35.90
2023-05-10T07:43:53.646Z,35.80
2023-05-10T07:46:22.828Z,35.80
2023-05-10T07:48:51.858Z,35.80
2023-05-10T07:51:20.884Z,35.80
2023-05-10T07:53:49.868Z,35.80
2023-05-10T07:56:27.095Z,35.80
2023-05-10T07:58:57.410Z,35.80
2023-05-10T08:01:26.777Z,35.80
2023-05-10T08:03:55.862Z,35.80
2023-05-10T08:06:24.902Z,35.60
2023-05-10T08:08:55.709Z,35.60
2023-05-10T08:11:25.013Z,35.50
2023-05-10T08:13:55.073Z,35.50
2023-05-10T08:16:24.209Z,35.50
2023-05-10T08:18:53.999Z,35.50
2023-05-10T08:21:23.208Z,35.50
2023-05-10T08:23:52.170Z,35.50
2023-05-10T08:26:21.232Z,35.50
2023-05-10T08:28:50.248Z,35.50
2023-05-10T08:31:20.212Z,35.60
2023-05-10T08:33:49.277Z,35.50
2023-05-10T08:36:23.573Z,35.60
2023-05-10T08:38:57.212Z,35.60
2023-05-10T08:41:30.623Z,35.50
2023-05-10T08:44:00.484Z,35.40
2023-05-10T08:46:31.066Z,35.30
2023-05-10T08:49:04.020Z,35.20
2023-05-10T08:51:38.120Z,35.20
2023-05-10T08:54:07.917Z,35.20
2023-05-10T08:56:36.897Z,35.10
2023-05-10T08:59:06.007Z,34.90
2023-05-10T09:01:38.112Z,34.70
2023-05-10T09:04:07.320Z,34.70
2023-05-10T09:06:37.122Z,34.60
2023-05-10T09:09:06.295Z,34.50
2023-05-10T09:11:35.516Z,34.50
2023-05-10T09:14:11.648Z,34.40
2023-05-10T09:16:41.148Z,34.30
2023-05-10T09:19:11.738Z,34.20
2023-05-10T09:21:41.129Z,34.00
2023-05-10T09:24:11.120Z,34.00
2023-05-10T09:26:52.022Z,33.80
2023-05-10T09:29:21.246Z,33.70
2023-05-10T09:32:07.062Z,33.60
2023-05-10T09:34:37.826Z,33.50
2023-05-10T09:37:06.961Z,33.40
2023-05-10T09:39:37.732Z,33.40
2023-05-10T09:42:17.061Z,33.20
2023-05-10T09:44:50.624Z,33.20
2023-05-10T09:47:22.643Z,33.10
2023-05-10T09:49:55.601Z,33.00
2023-05-10T09:52:24.603Z,32.90
2023-05-10T09:54:57.348Z,32.80
2023-05-10T09:57:28.182Z,32.70
2023-05-10T09:59:57.388Z,32.60
2023-05-10T10:02:31.799Z,32.60
2023-05-10T10:05:03.639Z,32.50
2023-05-10T10:07:33.947Z,32.50
2023-05-10T10:10:03.087Z,32.40
2023-05-10T10:12:32.108Z,32.30
2023-05-10T10:15:03.467Z,32.30
2023-05-10T10:17:34.104Z,32.30
2023-05-10T10:20:05.261Z,32.20
2023-05-10T10:22:34.242Z,32.00
2023-05-10T10:25:03.539Z,31.70
2023-05-10T10:27:56.600Z,31.40
2023-05-10T10:30:44.320Z,31.00
2023-05-10T10:33:31.688Z,30.70
2023-05-10T10:36:06.074Z,30.40
2023-05-10T10:38:50.277Z,30.10
2023-05-10T10:41:36.787Z,29.90
2023-05-10T10:44:35.805Z,29.70
2023-05-10T10:47:13.579Z,29.50
2023-05-10T10:49:48.674Z,29.30
2023-05-10T10:52:20.277Z,29.20
2023-05-10T10:55:20.381Z,29.10
2023-05-10T10:58:02.778Z,29.00
2023-05-10T11:00:35.785Z,29.00
2023-05-10T11:03:19.425Z,28.90
2023-05-10T11:05:54.156Z,28.90
2023-05-10T11:08:30.379Z,28.80
2023-05-10T11:11:02.120Z,28.80
2023-05-10T11:13:44.236Z,28.70
2023-05-10T11:16:19.278Z,28.60
2023-05-10T11:19:12.988Z,28.60
2023-05-10T11:22:07.614Z,28.50
2023-05-10T11:24:38.058Z,28.50
2023-05-10T11:27:07.992Z,28.50
2023-05-10T11:29:36.978Z,28.40
2023-05-10T11:32:10.315Z,28.40
2023-05-10T11:34:39.288Z,28.40
2023-05-10T11:37:08.266Z,28.40
2023-05-10T11:39:37.246Z,28.40
2023-05-10T11:42:06.562Z,28.30
2023-05-10T11:44:35.910Z,28.30
2023-05-10T11:47:05.325Z,28.40
2023-05-10T11:49:34.507Z,28.30
2023-05-10T11:52:15.558Z,28.30
2023-05-10T11:55:04.879Z,28.30
2023-05-10T11:57:34.149Z,28.30
2023-05-10T12:00:03.877Z,28.30
2023-05-10T12:02:33.043Z,28.30
2023-05-10T12:05:02.596Z,28.30
2023-05-10T12:07:31.644Z,28.30
2023-05-10T12:10:19.622Z,28.30
2023-05-10T12:12:50.330Z,28.30
2023-05-10T12:15:27.195Z,28.30
2023-05-10T12:17:56.906Z,28.30
2023-05-10T12:20:27.300Z,28.30
2023-05-10T12:22:59.746Z,28.30
2023-05-10T12:25:33.859Z,28.30
2023-05-10T12:28:06.163Z,28.30
2023-05-10T12:30:36.813Z,28.30
2023-05-10T12:33:12.111Z,28.20
2023-05-10T12:35:51.502Z,28.20
2023-05-10T12:38:40.427Z,28.20
2023-05-10T12:41:11.580Z,28.20
2023-05-10T12:43:41.137Z,28.10
2023-05-10T12:46:15.063Z,28.10
2023-05-10T12:48:44.245Z,28.10
2023-05-10T12:51:19.280Z,28.10
2023-05-10T12:53:50.135Z,28.10
2023-05-10T12:56:19.294Z,28.00
2023-05-10T12:58:50.989Z,28.00
2023-05-10T13:01:20.300Z,28.00
2023-05-10T13:03:49.552Z,28.00
2023-05-10T13:06:18.500Z,28.00
2023-05-10T13:08:47.437Z,28.00
2023-05-10T13:11:19.078Z,28.00
2023-05-10T13:13:48.132Z,27.90
2023-05-10T13:16:17.159Z,27.90
2023-05-10T13:18:46.210Z,27.90
2023-05-10T13:21:15.230Z,27.90
2023-05-10T13:23:44.200Z,27.80
2023-05-10T13:26:13.207Z,27.80
2023-05-10T13:28:42.834Z,27.80
2023-05-10T13:31:11.857Z,27.80
2023-05-10T13:33:40.899Z,27.80
2023-05-10T13:36:10.148Z,27.80
2023-05-10T13:38:39.877Z,27.80
2023-05-10T13:41:09.185Z,27.80
2023-05-10T13:43:38.627Z,27.80
2023-05-10T13:46:07.869Z,27.90
2023-05-10T13:48:39.232Z,27.90
2023-05-10T13:51:08.301Z,27.90
2023-05-10T13:53:37.325Z,27.90
2023-05-10T13:56:06.412Z,28.00
2023-05-10T13:58:35.369Z,28.00
2023-05-10T14:01:04.398Z,28.00
2023-05-10T14:03:34.764Z,28.00
2023-05-10T14:06:04.029Z,28.00
2023-05-10T14:08:33.181Z,28.00
2023-05-10T14:11:02.172Z,28.00
2023-05-10T14:13:31.132Z,28.00
2023-05-10T14:16:02.640Z,28.00
2023-05-10T14:18:31.719Z,28.00
2023-05-10T14:21:00.698Z,28.00
2023-05-10T14:23:30.816Z,28.00
2023-05-10T14:25:59.958Z,28.10
2023-05-10T14:28:29.112Z,28.10
2023-05-10T14:30:58.117Z,28.10
2023-05-10T14:33:27.205Z,28.00
2023-05-10T14:35:59.141Z,28.00
2023-05-10T14:38:28.777Z,28.10
2023-05-10T14:40:57.850Z,28.10
2023-05-10T14:43:27.019Z,28.10
2023-05-10T14:45:56.286Z,28.10
2023-05-10T14:48:25.521Z,28.10
2023-05-10T14:50:54.824Z,28.10
2023-05-10T14:53:23.873Z,28.10
2023-05-10T14:55:52.949Z,28.10
2023-05-10T14:58:21.945Z,28.20
2023-05-10T15:00:51.200Z,28.20
2023-05-10T15:03:20.922Z,28.20
2023-05-10T15:05:50.659Z,28.30
2023-05-10T15:08:19.624Z,28.30
2023-05-10T15:10:49.109Z,28.30
2023-05-10T15:13:18.116Z,28.30
2023-05-10T15:15:47.128Z,28.30
2023-05-10T15:18:16.276Z,28.30
2023-05-10T15:20:45.366Z,28.30
2023-05-10T15:23:14.693Z,28.30
2023-05-10T15:25:43.711Z,28.30
2023-05-10T15:28:12.678Z,28.30
2023-05-10T15:30:41.700Z,28.30
2023-05-10T15:33:10.799Z,28.30
2023-05-10T15:35:41.701Z,28.30
2023-05-10T15:38:11.517Z,28.30
2023-05-10T15:40:40.595Z,28.30
2023-05-10T15:43:09.819Z,28.30
2023-05-10T15:45:38.829Z,28.20
2023-05-10T15:48:08.076Z,28.20
2023-05-10T15:50:37.083Z,28.20
2023-05-10T15:53:06.324Z,28.20
2023-05-10T15:55:36.526Z,28.20
2023-05-10T15:58:05.574Z,28.10
2023-05-10T16:00:34.643Z,28.10
2023-05-10T16:03:03.828Z,28.00
2023-05-10T16:05:34.986Z,28.00
2023-05-10T16:08:04.271Z,28.00
2023-05-10T16:10:36.398Z,28.00
2023-05-10T16:13:05.754Z,27.90
2023-05-10T16:15:35.140Z,27.90
2023-05-10T16:18:04.168Z,27.90
2023-05-10T16:20:34.622Z,28.00
2023-05-10T16:23:08.394Z,28.00
2023-05-10T16:25:37.836Z,28.00
2023-05-10T16:28:06.943Z,27.90
2023-05-10T16:30:36.105Z,27.90
2023-05-10T16:33:05.368Z,27.90
2023-05-10T16:35:34.367Z,27.80
2023-05-10T16:38:03.422Z,27.80
2023-05-10T16:40:32.611Z,27.80
2023-05-10T16:43:01.529Z,27.80
2023-05-10T16:45:33.957Z,27.70
2023-05-10T16:48:02.977Z,27.70
2023-05-10T16:50:32.091Z,27.70
2023-05-10T16:53:01.384Z,27.70
2023-05-10T16:55:30.336Z,27.50
2023-05-10T16:58:01.683Z,27.40
2023-05-10T17:00:31.046Z,27.30
2023-05-10T17:03:00.130Z,27.10
2023-05-10T17:05:29.273Z,26.90
2023-05-10T17:07:58.292Z,26.70
2023-05-10T17:10:27.422Z,26.60
2023-05-10T17:12:56.593Z,26.40
2023-05-10T17:15:25.646Z,26.40
2023-05-10T17:17:54.776Z,26.20
2023-05-10T17:20:23.873Z,26.20
2023-05-10T17:22:53.277Z,26.10
2023-05-10T17:25:22.285Z,26.00
2023-05-10T17:27:51.209Z,26.00
2023-05-10T17:30:25.524Z,25.90
2023-05-10T17:32:57.824Z,25.80
2023-05-10T17:35:27.252Z,25.80
2023-05-10T17:37:56.468Z,25.80
2023-05-10T17:40:25.475Z,25.70
2023-05-10T17:42:54.483Z,25.70
2023-05-10T17:45:23.550Z,25.60
2023-05-10T17:47:52.578Z,25.60
2023-05-10T17:50:21.758Z,25.50
2023-05-10T17:52:50.776Z,25.50
2023-05-10T17:55:19.988Z,25.50
2023-05-10T17:57:51.121Z,25.50
2023-05-10T18:00:20.994Z,25.40
2023-05-10T18:02:50.092Z,25.40
2023-05-10T18:05:19.590Z,25.30
2023-05-10T18:07:48.874Z,25.30
2023-05-10T18:10:17.958Z,25.30
2023-05-10T18:12:47.054Z,25.20
2023-05-10T18:15:16.310Z,25.20
2023-05-10T18:17:45.773Z,25.10
2023-05-10T18:20:14.832Z,25.10
2023-05-10T18:22:44.591Z,25.00
2023-05-10T18:25:13.628Z,25.00
2023-05-10T18:27:42.651Z,24.90
2023-05-10T18:30:13.838Z,24.90
2023-05-10T18:32:43.042Z,24.70
2023-05-10T18:35:13.032Z,24.70
2023-05-10T18:37:42.454Z,24.60
2023-05-10T18:40:13.699Z,24.50
2023-05-10T18:42:43.238Z,24.40
2023-05-10T18:45:12.864Z,24.30
2023-05-10T18:47:41.984Z,24.30
2023-05-10T18:50:11.466Z,24.30
2023-05-10T18:52:40.713Z,24.20
2023-05-10T18:55:10.419Z,24.20
2023-05-10T18:57:42.590Z,24.10
2023-05-10T19:00:13.744Z,24.10
2023-05-10T19:02:42.877Z,24.10
2023-05-10T19:05:12.094Z,24.10
2023-05-10T19:07:44.580Z,24.10
2023-05-10T19:10:14.854Z,24.10
2023-05-10T19:12:43.877Z,24.00
2023-05-10T19:15:13.178Z,24.00
2023-05-10T19:17:44.971Z,24.00
2023-05-10T19:20:16.956Z,24.00
2023-05-10T19:23:02.256Z,24.00
2023-05-10T19:25:36.428Z,24.00
2023-05-10T19:28:05.326Z,23.90
2023-05-10T19:30:34.250Z,23.90
2023-05-10T19:33:06.798Z,23.90
2023-05-10T19:35:37.192Z,23.90
2023-05-10T19:38:06.247Z,23.90
2023-05-10T19:40:35.221Z,24.00
2023-05-10T19:43:04.959Z,24.00
2023-05-10T19:45:38.751Z,24.00
2023-05-10T19:48:08.141Z,24.00
2023-05-10T19:50:37.316Z,24.00
2023-05-10T19:53:06.240Z,24.00
2023-05-10T19:55:36.772Z,24.00
2023-05-10T19:58:07.108Z,24.00
2023-05-10T20:00:36.692Z,24.00
2023-05-10T20:03:09.127Z,24.00
2023-05-10T20:05:38.359Z,24.00
2023-05-10T20:08:07.326Z,24.00
2023-05-10T20:10:36.331Z,24.00
2023-05-10T20:13:05.517Z,24.00
2023-05-10T20:15:34.711Z,24.00
2023-05-10T20:18:04.820Z,24.00
2023-05-10T20:20:33.983Z,24.00
2023-05-10T20:23:02.997Z,24.00
2023-05-10T20:25:32.115Z,24.00
2023-05-10T20:28:01.132Z,24.00
2023-05-10T20:30:30.132Z,24.00
2023-05-10T20:32:59.189Z,24.00
2023-05-10T20:35:28.300Z,24.00
2023-05-10T20:37:57.289Z,24.10
2023-05-10T20:40:26.322Z,24.10
2023-05-10T20:42:55.365Z,24.10
2023-05-10T20:45:24.590Z,24.00
2023-05-10T20:47:54.177Z,24.00
2023-05-10T20:50:23.325Z,24.00
2023-05-10T20:52:53.646Z,24.00
2023-05-10T20:55:23.026Z,24.00
2023-05-10T20:57:52.675Z,24.00
2023-05-10T21:00:22.234Z,24.00
2023-05-10T21:02:51.492Z,24.00
2023-05-10T21:05:20.598Z,24.00
2023-05-10T21:07:50.600Z,24.00
2023-05-10T21:10:20.018Z,24.00
2023-05-10T21:12:49.291Z,24.10
2023-05-10T21:15:18.839Z,24.10
2023-05-10T21:17:47.847Z,24.10
2023-05-10T21:20:17.226Z,24.10
2023-05-10T21:22:46.418Z,24.10
2023-05-10T21:25:15.602Z,24.10
2023-05-10T21:27:44.655Z,24.10
2023-05-10T21:30:13.883Z,24.10
2023-05-10T21:32:42.981Z,24.10
2023-05-10T21:35:12.046Z,24.10
2023-05-10T21:37:41.086Z,24.10
2023-05-10T21:40:10.601Z,24.10
2023-05-10T21:42:39.587Z,24.10
2023-05-10T21:45:09.033Z,24.10
2023-05-10T21:47:38.377Z,24.10
2023-05-10T21:50:07.900Z,24.10
2023-05-10T21:52:37.074Z,24.10
2023-05-10T21:55:06.757Z,24.10
2023-05-10T21:57:38.466Z,24.20
2023-05-10T22:00:08.150Z,24.20
2023-05-10T22:02:37.314Z,24.10
2023-05-10T22:05:06.577Z,24.10
2023-05-10T22:07:35.659Z,24.10
2023-05-10T22:10:05.046Z,24.20
2023-05-10T22:12:34.002Z,24.20
2023-05-10T22:17:34.946Z,24.10
2023-05-10T22:20:04.038Z,24.10
2023-05-10T22:22:32.984Z,24.10
2023-05-10T22:25:02.510Z,24.10
2023-05-10T22:27:31.536Z,24.10
2023-05-10T22:30:00.543Z,24.10
2023-05-10T22:32:29.561Z,24.10
2023-05-10T22:34:58.593Z,24.10
2023-05-10T22:37:28.002Z,24.10
2023-05-10T22:39:56.994Z,24.20
2023-05-10T22:42:25.965Z,24.10
2023-05-10T22:44:55.077Z,24.20
2023-05-10T22:47:24.040Z,24.20
2023-05-10T22:49:53.636Z,24.10
2023-05-10T22:52:22.644Z,24.10
2023-05-10T22:54:51.932Z,24.10
2023-05-10T22:57:20.891Z,24.10
2023-05-10T22:59:50.089Z,24.10
2023-05-10T23:02:19.172Z,24.10
2023-05-10T23:04:48.731Z,24.10
2023-05-10T23:07:17.842Z,24.10
2023-05-10T23:09:47.221Z,24.10
2023-05-10T23:12:16.267Z,24.00
2023-05-10T23:14:47.489Z,24.10
2023-05-10T23:17:16.495Z,24.10
2023-05-10T23:19:45.457Z,24.00
2023-05-10T23:22:14.971Z,24.00
2023-05-10T23:24:43.998Z,24.00
2023-05-10T23:27:13.013Z,24.10
2023-05-10T23:29:42.136Z,24.10
2023-05-10T23:32:11.239Z,24.10
2023-05-10T23:34:40.268Z,24.10
2023-05-10T23:37:09.261Z,24.10
2023-05-10T23:39:38.276Z,24.10
2023-05-10T23:42:07.576Z,24.20
2023-05-10T23:44:36.717Z,24.20
2023-05-10T23:47:05.692Z,24.20
2023-05-10T23:49:34.773Z,24.20
2023-05-10T23:52:03.719Z,24.20
2023-05-10T23:54:32.703Z,24.20
2023-05-10T23:57:02.174Z,24.20
2023-05-10T23:59:31.251Z,24.20
